This is the latest recevied weather packets stored in our database for station/object CE1JFB-10. If no packets are shown the sender has not sent any weather packets the latest 10 day(s).
| Time | Temp. | Humidity | Pressure | Rain* | Wind** | Luminosity | Snow |
|---|---|---|---|---|---|---|---|
| 1788167044 | 21.11° C | 63% | 1015.8 hPa | - | - | - | - |
| 1788163444 | 21.11° C | 62% | 1016.1 hPa | - | - | - | - |
| 1788159844 | 21.67° C | 61% | 1016.3 hPa | - | - | - | - |
| 1788156244 | 21.67° C | 60% | 1016.6 hPa | - | - | - | - |
| 1788152644 | 21.67° C | 60% | 1016.9 hPa | - | - | - | - |
| 1788149044 | 22.22° C | 59% | 1017.2 hPa | - | - | - | - |
| 1788145444 | 22.78° C | 58% | 1016.9 hPa | - | - | - | - |
| 1788141843 | 22.78° C | 58% | 1017 hPa | - | - | - | - |
| 1788138243 | 22.78° C | 57% | 1016.8 hPa | - | - | - | - |
| 1788134643 | 22.78° C | 57% | 1016.5 hPa | - | - | - | - |
| 1788131043 | 22.78° C | 57% | 1015.8 hPa | - | - | - | - |
| 1788127443 | 22.78° C | 57% | 1015.1 hPa | - | - | - | - |
| 1788123843 | 22.78° C | 55% | 1014.4 hPa | - | - | - | - |
| 1788120243 | 23.89° C | 53% | 1013.7 hPa | - | - | - | - |
| 1788116643 | 25° C | 51% | 1013.7 hPa | - | - | - | - |
| 1788113043 | 24.44° C | 51% | 1014.5 hPa | - | - | - | - |
| 1788109443 | 25° C | 50% | 1014.6 hPa | - | - | - | - |
| 1788105842 | 25° C | 51% | 1015 hPa | - | - | - | - |
| 1788102242 | 23.89° C | 53% | 1015.3 hPa | - | - | - | - |
| 1788098642 | 23.33° C | 55% | 1015.4 hPa | - | - | - | - |
| 1788095042 | 22.22° C | 59% | 1014.9 hPa | - | - | - | - |
| 1788091442 | 21.11° C | 62% | 1014.5 hPa | - | - | - | - |
| 1788087842 | 21.11° C | 63% | 1014 hPa | - | - | - | - |
| 1788084242 | 21.11° C | 63% | 1013.7 hPa | - | - | - | - |
| 1788080642 | 21.11° C | 64% | 1013.6 hPa | - | - | - | - |
* Rain since midnight (hover to see other rain measurements)
** Current wind speed in m/s (hover to see current wind gust speed)